Time;durP1;ratioP1;P1;durP2;ratioP2;P2;SDS_P1;SDS_P2;PMS_P1;PMS_P2;Temp;Humidity;BMP_temperature;BMP_pressure;BME280_temperature;BME280_humidity;BME280_pressure;Samples;Min_cycle;Max_cycle;Signal;HPM_P1;HPM_P2
2021/12/11 00:00:40;;;;;;;29.33;16.95;;;0.50;99.90;;;;;;4955271;28;20105;-74
2021/12/11 00:03:17;;;;;;;32.42;17.35;;;0.50;99.90;;;;;;4955186;28;20039;-74
2021/12/11 00:05:49;;;;;;;31.45;17.23;;;0.30;99.90;;;;;;4939131;29;20126;-74
2021/12/11 00:08:19;;;;;;;38.20;17.33;;;0.40;99.90;;;;;;4955475;29;20051;-74
2021/12/11 00:10:50;;;;;;;32.05;16.63;;;0.50;99.90;;;;;;4955202;28;20483;-74
2021/12/11 00:13:21;;;;;;;31.25;16.65;;;0.40;99.90;;;;;;4955250;28;20047;-74
2021/12/11 00:15:48;;;;;;;36.67;18.85;;;0.20;99.90;;;;;;4955159;28;20122;-74
2021/12/11 00:18:24;;;;;;;34.90;18.40;;;0.30;99.90;;;;;;4954876;28;20050;-74
2021/12/11 00:21:03;;;;;;;38.25;19.33;;;0.30;99.90;;;;;;4955084;29;20483;-74
2021/12/11 00:23:56;;;;;;;33.53;18.00;;;0.40;99.90;;;;;;4954986;29;20047;-74
2021/12/11 00:26:29;;;;;;;40.55;20.77;;;0.30;99.90;;;;;;4955240;28;20054;-74
2021/12/11 00:28:56;;;;;;;36.80;20.02;;;;;;;;;;4954768;28;20054;-74
2021/12/11 00:31:22;;;;;;;35.53;18.85;;;;;;;;;;4938751;29;20078;-74
2021/12/11 00:33:49;;;;;;;35.88;17.85;;;0.70;99.90;;;;;;4954834;28;20047;-74
2021/12/11 00:36:20;;;;;;;30.48;18.77;;;0.60;99.90;;;;;;4954577;28;20130;-74
2021/12/11 00:38:49;;;;;;;35.55;19.23;;;0.50;99.90;;;;;;4954480;29;20051;-74
2021/12/11 00:41:21;;;;;;;34.90;18.83;;;0.30;99.90;;;;;;4954954;28;20396;-74
2021/12/11 00:43:49;;;;;;;32.90;18.92;;;0.40;99.90;;;;;;4954685;28;20075;-74
2021/12/11 00:46:23;;;;;;;34.28;17.75;;;;;;;;;;4955996;28;20035;-74
2021/12/11 00:48:49;;;;;;;32.67;17.95;;;;;;;;;;4938512;28;20050;-74
2021/12/11 00:51:19;;;;;;;34.20;18.10;;;0.40;99.90;;;;;;4954011;28;20044;-74
2021/12/11 00:53:52;;;;;;;32.65;19.33;;;0.40;99.90;;;;;;4954281;29;20039;-74
2021/12/11 00:56:26;;;;;;;30.75;17.08;;;0.50;99.90;;;;;;4954295;29;20051;-74
2021/12/11 00:58:55;;;;;;;30.83;18.42;;;0.30;99.90;;;;;;4954318;29;20118;-74
2021/12/11 01:01:27;;;;;;;32.67;17.20;;;0.30;99.90;;;;;;4954520;29;20049;-74
2021/12/11 01:04:16;;;;;;;32.13;17.17;;;0.60;99.90;;;;;;4954454;28;20042;-74
2021/12/11 01:06:48;;;;;;;31.52;16.38;;;0.40;99.90;;;;;;4953852;28;20132;-74
2021/12/11 01:09:19;;;;;;;31.33;16.70;;;0.20;99.90;;;;;;4970514;28;20051;-74
2021/12/11 01:11:51;;;;;;;33.05;17.75;;;0.40;99.90;;;;;;4954354;28;20039;-74
2021/12/11 01:14:25;;;;;;;28.98;17.23;;;;;;;;;;4954502;29;20051;-74
2021/12/11 01:17:09;;;;;;;33.78;18.95;;;0.70;99.90;;;;;;4954070;28;20487;-74
2021/12/11 01:19:39;;;;;;;37.47;18.52;;;0.20;99.90;;;;;;4954268;29;20035;-74
2021/12/11 01:22:31;;;;;;;34.95;17.98;;;0.30;99.90;;;;;;4954261;28;20047;-74
2021/12/11 01:24:57;;;;;;;33.17;17.92;;;;;;;;;;4954087;28;20075;-74
2021/12/11 01:27:26;;;;;;;39.33;17.98;;;-0.60;99.90;;;;;;4938397;29;20462;-74
2021/12/11 01:29:56;;;;;;;32.40;18.27;;;0.10;99.90;;;;;;4954350;29;20097;-74
2021/12/11 01:32:22;;;;;;;31.02;17.77;;;;;;;;;;4954026;28;20043;-74
2021/12/11 01:34:48;;;;;;;29.83;16.92;;;;;;;;;;4954240;29;20039;-74
2021/12/11 01:37:15;;;;;;;31.05;16.40;;;0.00;99.90;;;;;;4937851;28;20043;-74
2021/12/11 01:39:42;;;;;;;34.30;16.60;;;0.10;99.90;;;;;;4953785;28;20071;-74
2021/12/11 01:42:30;;;;;;;33.38;17.50;;;0.20;99.90;;;;;;4954044;29;20043;-74
2021/12/11 01:44:57;;;;;;;29.30;16.27;;;0.00;99.90;;;;;;4953953;28;20035;-74
2021/12/11 01:47:43;;;;;;;33.85;17.65;;;;;;;;;;4953815;28;20040;-74
2021/12/11 01:50:21;;;;;;;31.23;16.88;;;-0.20;99.90;;;;;;4954162;28;20126;-74
2021/12/11 01:53:07;;;;;;;29.10;16.15;;;;;;;;;;4953734;28;20050;-74
2021/12/11 01:55:39;;;;;;;28.85;15.80;;;-0.20;99.90;;;;;;4953902;28;20047;-74
2021/12/11 01:58:09;;;;;;;24.02;14.65;;;-0.30;99.90;;;;;;4953680;29;20039;-74
2021/12/11 02:00:43;;;;;;;26.38;15.70;;;-0.20;99.90;;;;;;4954003;28;20531;-74
2021/12/11 02:03:14;;;;;;;29.27;15.13;;;-0.30;99.90;;;;;;4953593;28;20055;-74
2021/12/11 02:05:41;;;;;;;27.80;15.57;;;-0.20;99.90;;;;;;4957397;28;20043;-74
2021/12/11 02:08:14;;;;;;;32.60;17.08;;;-0.30;99.90;;;;;;4957525;28;20051;-74
2021/12/11 02:10:45;;;;;;;29.17;15.95;;;-0.20;99.90;;;;;;4957484;28;20051;-74
2021/12/11 02:13:22;;;;;;;31.25;16.23;;;-0.20;99.90;;;;;;4957593;29;20043;-74
2021/12/11 02:15:51;;;;;;;29.17;16.38;;;;;;;;;;4957241;29;20046;-74
2021/12/11 02:18:34;;;;;;;28.40;16.15;;;-0.30;99.90;;;;;;4957160;28;20372;-74
2021/12/11 02:21:11;;;;;;;28.75;16.30;;;-0.40;99.90;;;;;;4957056;28;20047;-74
2021/12/11 02:23:38;;;;;;;32.03;16.65;;;;;;;;;;4957365;28;20042;-74
2021/12/11 02:26:06;;;;;;;34.15;17.30;;;;;;;;;;4957127;28;20506;-74
2021/12/11 02:28:45;;;;;;;35.92;16.98;;;-0.50;99.90;;;;;;4957126;29;20047;-74
2021/12/11 02:31:21;;;;;;;32.15;16.85;;;-0.20;99.90;;;;;;4956910;29;20039;-74
2021/12/11 02:34:08;;;;;;;33.40;17.20;;;-0.40;99.90;;;;;;4957165;28;20064;-74
2021/12/11 02:36:57;;;;;;;32.35;16.35;;;-0.40;99.90;;;;;;4956901;29;20039;-74
2021/12/11 02:39:35;;;;;;;28.85;16.80;;;-0.30;99.90;;;;;;4956695;28;20515;-74
2021/12/11 02:42:23;;;;;;;31.05;16.63;;;0.20;99.90;;;;;;4941115;29;20050;-74
2021/12/11 02:45:15;;;;;;;29.40;15.90;;;-0.50;99.90;;;;;;4956824;28;20054;-74
2021/12/11 02:47:47;;;;;;;31.75;17.00;;;-0.30;99.90;;;;;;4940246;29;20106;-74
2021/12/11 02:50:13;;;;;;;30.92;16.80;;;;;;;;;;4956617;28;20051;-74
2021/12/11 02:52:49;;;;;;;28.00;16.67;;;-0.40;99.90;;;;;;4956659;29;20043;-74
2021/12/11 02:55:44;;;;;;;27.98;16.15;;;-0.10;99.90;;;;;;4956638;29;20126;-74
2021/12/11 02:58:15;;;;;;;31.20;16.55;;;-0.20;99.90;;;;;;4940469;29;20563;-74
2021/12/11 03:00:47;;;;;;;30.80;16.58;;;-0.30;99.90;;;;;;4940701;29;20129;-74
2021/12/11 03:03:16;;;;;;;27.23;15.07;;;-0.40;99.90;;;;;;4956495;28;20050;-74
2021/12/11 03:05:51;;;;;;;28.75;16.65;;;-0.40;99.90;;;;;;4940419;29;20499;-74
2021/12/11 03:08:20;;;;;;;28.50;15.93;;;-0.50;99.90;;;;;;4956544;29;20071;-74
2021/12/11 03:10:59;;;;;;;29.77;15.38;;;-0.60;99.90;;;;;;4940529;29;20051;-74
2021/12/11 03:13:27;;;;;;;26.40;14.70;;;;;;;;;;4956554;29;20082;-74
2021/12/11 03:15:54;;;;;;;25.08;14.25;;;;;;;;;;4940061;29;20047;-74
2021/12/11 03:18:20;;;;;;;24.05;13.48;;;;;;;;;;4956056;28;20047;-74
2021/12/11 03:20:48;;;;;;;20.75;13.02;;;;;;;;;;4956062;28;20043;-74
2021/12/11 03:23:15;;;;;;;24.88;13.23;;;;;;;;;;4940519;29;20497;-74
2021/12/11 03:25:41;;;;;;;24.95;13.48;;;-0.80;99.90;;;;;;4956015;28;20043;-74
2021/12/11 03:28:10;;;;;;;25.80;14.80;;;-0.90;99.90;;;;;;4955939;28;20043;-74
2021/12/11 03:30:40;;;;;;;22.88;13.50;;;-0.60;99.90;;;;;;4956025;28;20047;-74
2021/12/11 03:33:11;;;;;;;22.60;12.95;;;-0.90;99.90;;;;;;4956285;29;20083;-74
2021/12/11 03:35:38;;;;;;;23.80;13.45;;;-0.70;99.90;;;;;;4955831;29;20055;-74
2021/12/11 03:38:05;;;;;;;26.60;15.50;;;;;;;;;;4955766;28;20063;-74
2021/12/11 03:40:31;;;;;;;25.75;14.20;;;;;;;;;;4955748;28;20106;-74
2021/12/11 03:42:59;;;;;;;24.58;14.65;;;-0.60;99.90;;;;;;4939869;29;20192;-74
2021/12/11 03:45:30;;;;;;;23.90;13.32;;;;;;;;;;4939996;29;20369;-74
2021/12/11 03:48:02;;;;;;;28.33;14.43;;;-0.90;99.90;;;;;;4955758;28;20047;-74
2021/12/11 03:50:29;;;;;;;23.52;13.50;;;;;;;;;;4939453;29;20101;-74
2021/12/11 03:52:55;;;;;;;24.05;14.85;;;;;;;;;;4940084;28;20141;-74
2021/12/11 03:55:29;;;;;;;24.75;14.38;;;-0.60;99.90;;;;;;4955547;28;20043;-74
2021/12/11 03:58:01;;;;;;;24.50;13.93;;;;;;;;;;4955585;29;20481;-74
2021/12/11 04:00:38;;;;;;;26.45;14.95;;;-0.80;99.90;;;;;;4955757;28;20054;-74
2021/12/11 04:03:08;;;;;;;22.88;13.80;;;-0.50;99.90;;;;;;4955328;28;20039;-74
2021/12/11 04:05:38;;;;;;;22.02;13.50;;;-0.70;99.90;;;;;;4955237;28;20046;-74
2021/12/11 04:08:06;;;;;;;23.92;14.77;;;-0.70;99.90;;;;;;4939693;29;20051;-74
2021/12/11 04:10:32;;;;;;;24.30;14.32;;;;;;;;;;4955465;29;20082;-74
2021/12/11 04:13:02;;;;;;;23.80;14.00;;;-0.70;99.90;;;;;;4955236;29;20132;-74
2021/12/11 04:15:29;;;;;;;26.92;14.65;;;;;;;;;;4955039;28;20089;-74
2021/12/11 04:17:55;;;;;;;28.50;15.52;;;;;;;;;;4954971;29;20047;-74
2021/12/11 04:20:24;;;;;;;25.90;14.25;;;;;;;;;;4955048;28;20035;-74
2021/12/11 04:22:50;;;;;;;29.83;16.27;;;;;;;;;;4955144;28;20047;-74
2021/12/11 04:25:18;;;;;;;29.98;16.33;;;-0.60;99.90;;;;;;4955059;29;20035;-74
2021/12/11 04:27:45;;;;;;;30.52;16.58;;;-0.50;99.90;;;;;;4954381;28;20039;-74
2021/12/11 04:30:13;;;;;;;30.45;16.58;;;-0.90;99.90;;;;;;4954846;29;20054;-74
2021/12/11 04:32:39;;;;;;;29.38;15.80;;;-0.50;99.90;;;;;;4955043;29;20094;-74
2021/12/11 04:35:08;;;;;;;26.98;15.15;;;-0.60;99.90;;;;;;4938783;29;20050;-74
2021/12/11 04:37:35;;;;;;;28.40;16.05;;;-0.50;99.90;;;;;;4954455;28;20186;-74
2021/12/11 04:40:07;;;;;;;29.05;16.40;;;-0.60;99.90;;;;;;4954820;28;20098;-74
2021/12/11 04:43:01;;;;;;;24.30;14.25;;;-0.60;99.90;;;;;;4954787;29;20447;-74
2021/12/11 04:45:48;;;;;;;28.38;14.98;;;-0.60;99.90;;;;;;4938877;29;20058;-74
2021/12/11 04:51:07;;;;;;;25.95;14.45;;;;;;;;;;4954402;29;20055;-74
2021/12/11 04:53:46;;;;;;;28.85;15.02;;;-0.60;99.90;;;;;;4938541;29;20051;-74
2021/12/11 04:56:38;;;;;;;24.20;13.98;;;-0.80;99.90;;;;;;4939982;29;20130;-74
2021/12/11 04:59:28;;;;;;;25.60;14.85;;;-0.90;99.90;;;;;;4954326;28;20495;-74
2021/12/11 05:04:44;;;;;;;23.35;13.73;;;;;;;;;;4954695;28;20149;-74
2021/12/11 05:10:17;;;;;;;29.90;14.95;;;-0.80;99.90;;;;;;4954236;28;20057;-74
2021/12/11 05:12:47;;;;;;;26.15;14.65;;;-0.90;99.90;;;;;;4950835;29;20456;-74
2021/12/11 05:15:23;;;;;;;24.63;13.98;;;-0.90;99.90;;;;;;4954203;29;20101;-74
2021/12/11 05:17:49;;;;;;;25.17;14.13;;;;;;;;;;4954026;28;20484;-74
2021/12/11 05:20:19;;;;;;;25.42;14.30;;;-1.10;99.90;;;;;;4954403;28;20130;-74
2021/12/11 05:22:46;;;;;;;30.67;15.27;;;-1.50;99.90;;;;;;4954154;29;20050;-74
2021/12/11 05:25:12;;;;;;;26.30;14.98;;;-0.80;99.90;;;;;;4954367;29;20365;-74
2021/12/11 05:27:41;;;;;;;23.40;14.05;;;-0.90;99.90;;;;;;4954162;29;20043;-74
2021/12/11 05:30:15;;;;;;;24.40;14.02;;;-0.90;99.90;;;;;;4954274;29;20133;-74
2021/12/11 05:32:41;;;;;;;23.00;13.63;;;-0.90;99.90;;;;;;4953943;28;20039;-74
2021/12/11 05:35:08;;;;;;;22.40;14.50;;;;;;;;;;4953783;28;20043;-74
2021/12/11 05:37:34;;;;;;;28.63;15.07;;;-0.80;99.90;;;;;;4954047;28;20039;-74
2021/12/11 05:40:04;;;;;;;26.70;14.70;;;-0.90;99.90;;;;;;4958122;28;20106;-74
2021/12/11 05:42:30;;;;;;;25.20;13.68;;;;;;;;;;4957802;28;20043;-74
2021/12/11 05:44:56;;;;;;;23.52;13.65;;;;;;;;;;4957783;28;20506;-74
2021/12/11 05:47:22;;;;;;;24.35;14.27;;;;;;;;;;4941836;29;20098;-74
2021/12/11 05:49:49;;;;;;;26.48;13.85;;;;;;;;;;4957765;28;20043;-74
2021/12/11 05:52:16;;;;;;;28.33;14.00;;;-0.90;99.90;;;;;;4957939;29;20054;-74
2021/12/11 05:54:45;;;;;;;27.65;14.40;;;-0.90;99.90;;;;;;4957851;28;20130;-74
2021/12/11 05:57:14;;;;;;;23.83;14.27;;;-1.00;99.90;;;;;;4957720;28;20114;-74
2021/12/11 05:59:42;;;;;;;24.13;14.38;;;-1.00;99.90;;;;;;4957837;29;20047;-74
2021/12/11 06:02:09;;;;;;;26.23;14.65;;;;;;;;;;4957506;28;20043;-74
2021/12/11 06:04:36;;;;;;;24.67;14.05;;;-0.90;99.90;;;;;;4957437;28;20407;-74
2021/12/11 06:07:06;;;;;;;29.88;15.30;;;-1.60;99.90;;;;;;4957476;29;20091;-74
2021/12/11 06:09:33;;;;;;;23.08;14.63;;;-1.00;99.90;;;;;;4957536;29;20063;-74
2021/12/11 06:12:05;;;;;;;23.73;13.85;;;-0.90;99.90;;;;;;4957249;28;20046;-74
2021/12/11 06:14:32;;;;;;;23.15;13.93;;;;;;;;;;4957266;28;20137;-74
2021/12/11 06:16:59;;;;;;;25.75;14.35;;;-1.10;99.90;;;;;;4957160;28;20040;-74
2021/12/11 06:19:27;;;;;;;26.42;14.45;;;;;;;;;;4941486;29;20047;-74
2021/12/11 06:21:54;;;;;;;25.92;13.77;;;-0.90;99.90;;;;;;4957106;28;20053;-74
2021/12/11 06:24:21;;;;;;;27.98;16.55;;;-1.10;99.90;;;;;;4957054;29;20043;-74
2021/12/11 06:26:48;;;;;;;27.08;14.75;;;;;;;;;;4957274;28;20487;-74
2021/12/11 06:29:14;;;;;;;28.55;14.63;;;;;;;;;;4957069;28;20094;-74
2021/12/11 06:31:43;;;;;;;24.60;14.35;;;;;;;;;;4957149;28;20051;-74
2021/12/11 06:34:09;;;;;;;26.00;14.75;;;;;;;;;;4940961;29;20046;-74
2021/12/11 06:36:35;;;;;;;24.63;14.70;;;;;;;;;;4957030;29;20130;-74
2021/12/11 06:39:06;;;;;;;26.27;15.00;;;-1.30;99.90;;;;;;4956758;28;20087;-74
2021/12/11 06:41:35;;;;;;;26.88;14.27;;;-1.10;99.90;;;;;;4940849;29;20492;-74
2021/12/11 06:44:01;;;;;;;29.90;14.57;;;-1.20;99.90;;;;;;4957259;29;20145;-74
2021/12/11 06:46:27;;;;;;;30.05;15.23;;;;;;;;;;4956859;28;20081;-74
2021/12/11 06:48:53;;;;;;;25.77;15.38;;;;;;;;;;4956590;28;20039;-74
2021/12/11 06:51:20;;;;;;;26.30;15.02;;;-0.80;99.90;;;;;;4940152;29;20082;-74
2021/12/11 06:53:51;;;;;;;30.02;15.05;;;-0.90;99.90;;;;;;4956652;29;20047;-74
2021/12/11 06:56:20;;;;;;;35.17;15.18;;;-1.10;99.90;;;;;;4956755;29;20035;-74
2021/12/11 06:58:47;;;;;;;28.27;14.85;;;;;;;;;;4956647;29;20047;-74
2021/12/11 07:01:13;;;;;;;27.98;14.50;;;;;;;;;;4956517;29;20039;-74
2021/12/11 07:03:40;;;;;;;28.58;15.60;;;-1.20;99.90;;;;;;4956376;29;20097;-74
2021/12/11 07:06:08;;;;;;;29.95;16.52;;;-1.10;99.90;;;;;;4940582;29;20039;-74
2021/12/11 07:08:35;;;;;;;30.75;17.13;;;;;;;;;;4940663;29;20054;-74
2021/12/11 07:11:02;;;;;;;34.88;18.02;;;;;;;;;;4956343;29;20082;-74
2021/12/11 07:13:28;;;;;;;35.83;17.33;;;;;;;;;;4956337;29;20058;-74
2021/12/11 07:15:56;;;;;;;32.67;18.38;;;;;;;;;;4956186;28;20554;-74
2021/12/11 07:18:22;;;;;;;38.05;17.95;;;;;;;;;;4956250;28;20741;-74
2021/12/11 07:20:48;;;;;;;60.25;18.90;;;;;;;;;;4956024;28;20046;-74
2021/12/11 07:23:14;;;;;;;36.20;18.30;;;;;;;;;;4940028;28;20138;-74
2021/12/11 07:25:52;;;;;;;34.55;18.15;;;-1.10;99.90;;;;;;4940062;29;20061;-74
2021/12/11 07:28:20;;;;;;;32.40;17.17;;;;;;;;;;4956021;28;20086;-74
2021/12/11 07:30:48;;;;;;;29.88;17.23;;;-1.00;99.90;;;;;;4956306;28;20562;-74
2021/12/11 07:33:14;;;;;;;28.95;16.23;;;;;;;;;;4955920;29;20054;-74
2021/12/11 07:35:42;;;;;;;36.75;17.33;;;-0.80;99.90;;;;;;4956006;28;20042;-74
2021/12/11 07:38:09;;;;;;;30.08;16.67;;;;;;;;;;4955519;29;20061;-74
2021/12/11 07:40:42;;;;;;;47.08;16.63;;;-0.70;99.90;;;;;;4955872;29;20085;-74
2021/12/11 07:43:10;;;;;;;28.55;16.35;;;;;;;;;;4955671;28;20118;-74
2021/12/11 07:45:36;;;;;;;41.92;16.27;;;;;;;;;;4955979;28;20043;-74
2021/12/11 07:48:03;;;;;;;43.55;17.88;;;-0.80;99.90;;;;;;4955419;28;20043;-74
2021/12/11 07:50:29;;;;;;;36.90;19.02;;;;;;;;;;4955456;29;20437;-74
2021/12/11 07:52:55;;;;;;;27.35;17.73;;;;;;;;;;4955426;29;20518;-74
2021/12/11 07:55:22;;;;;;;39.60;16.27;;;;;;;;;;4955481;28;20122;-74
2021/12/11 07:57:48;;;;;;;46.72;16.13;;;;;;;;;;4955388;28;20492;-74
2021/12/11 08:00:18;;;;;;;46.78;16.25;;;-0.20;99.90;;;;;;4955269;28;20039;-74
2021/12/11 08:02:44;;;;;;;48.60;16.00;;;;;;;;;;4955322;28;20047;-74
2021/12/11 08:05:11;;;;;;;27.00;15.40;;;-0.60;99.90;;;;;;4955272;28;20039;-75
2021/12/11 08:07:38;;;;;;;24.55;14.80;;;;;;;;;;4955403;28;20058;-74
2021/12/11 08:10:08;;;;;;;34.22;15.45;;;-1.30;99.90;;;;;;4955393;28;20043;-74
2021/12/11 08:12:35;;;;;;;25.95;14.85;;;;;;;;;;4955337;29;20043;-75
2021/12/11 08:15:01;;;;;;;24.38;15.13;;;;;;;;;;4955081;28;20078;-75
2021/12/11 08:17:27;;;;;;;38.05;15.32;;;;;;;;;;4955224;28;20098;-74
2021/12/11 08:19:52;;;;;;;42.55;15.25;;;-0.60;99.90;;;;;;4955003;28;20042;-75
2021/12/11 08:22:19;;;;;;;28.38;14.77;;;;;;;;;;4939041;29;20043;-76
2021/12/11 08:24:45;;;;;;;24.88;15.25;;;;;;;;;;4955220;28;20043;-74
2021/12/11 08:27:18;;;;;;;27.35;15.57;;;-0.50;99.90;;;;;;4923268;28;20105;-74
2021/12/11 08:29:47;;;;;;;30.40;15.20;;;-0.60;99.90;;;;;;4955033;28;20061;-74
2021/12/11 08:32:15;;;;;;;45.00;16.17;;;-0.70;99.90;;;;;;4954772;28;20133;-74
2021/12/11 08:34:41;;;;;;;24.15;14.40;;;0.00;99.90;;;;;;4954911;29;20109;-71
2021/12/11 08:37:09;;;;;;;28.73;16.05;;;;;;;;;;4954628;28;20046;-71
2021/12/11 08:39:35;;;;;;;25.73;15.05;;;-0.20;99.90;;;;;;4954503;28;20403;-71
2021/12/11 08:42:03;;;;;;;32.63;14.95;;;-0.50;99.90;;;;;;4954860;28;20057;-71
2021/12/11 08:44:35;;;;;;;32.25;14.82;;;-0.50;99.90;;;;;;4954679;28;20039;-71
2021/12/11 08:47:07;;;;;;;36.75;15.50;;;-0.40;99.90;;;;;;4954538;28;20043;-71
2021/12/11 08:49:34;;;;;;;26.03;15.73;;;-0.50;99.90;;;;;;4954723;28;20495;-71
2021/12/11 08:52:14;;;;;;;26.48;15.25;;;-0.20;99.90;;;;;;4954651;28;20106;-75
2021/12/11 08:54:40;;;;;;;27.42;16.40;;;;;;;;;;4954514;28;20122;-75
2021/12/11 08:57:09;;;;;;;28.52;16.58;;;-0.30;99.90;;;;;;4954334;29;20058;-75
2021/12/11 08:59:38;;;;;;;27.80;16.25;;;-0.40;99.90;;;;;;4954384;28;20054;-74
2021/12/11 09:02:23;;;;;;;27.50;16.88;;;-0.20;99.90;;;;;;4954514;29;20050;-74
2021/12/11 09:04:49;;;;;;;27.48;15.82;;;;;;;;;;4954314;29;20055;-74
2021/12/11 09:07:24;;;;;;;28.60;17.65;;;0.00;99.90;;;;;;4954395;28;20043;-74
2021/12/11 09:09:53;;;;;;;26.70;15.98;;;0.10;99.90;;;;;;4954091;28;20043;-74
2021/12/11 09:12:28;;;;;;;24.95;15.55;;;-0.10;99.90;;;;;;4954254;28;20439;-75
2021/12/11 09:15:33;;;;;;;28.80;17.75;;;0.10;99.90;;;;;;4954234;28;20043;-74
2021/12/11 09:18:03;;;;;;;29.38;15.50;;;-0.30;99.90;;;;;;4918322;29;20378;-74
2021/12/11 09:21:06;;;;;;;27.80;16.95;;;0.10;99.90;;;;;;4932344;29;20047;-74
2021/12/11 09:23:41;;;;;;;27.42;16.95;;;;;;;;;;4952108;29;20376;-74
2021/12/11 09:26:17;;;;;;;27.90;16.90;;;0.40;99.90;;;;;;4954088;29;20051;-74
2021/12/11 09:28:49;;;;;;;27.77;15.45;;;0.40;99.90;;;;;;4970105;28;20395;-75
2021/12/11 09:31:25;;;;;;;29.92;16.95;;;0.50;99.90;;;;;;4954342;28;20129;-75
2021/12/11 09:34:03;;;;;;;29.15;16.73;;;0.50;99.90;;;;;;4954112;28;20051;-75
2021/12/11 09:36:35;;;;;;;32.97;17.42;;;0.60;99.90;;;;;;4953880;29;20062;-74
2021/12/11 09:39:07;;;;;;;25.95;16.15;;;;;;;;;;4953678;28;20055;-74
2021/12/11 09:41:33;;;;;;;27.73;16.55;;;0.50;99.90;;;;;;4954059;29;20047;-74
2021/12/11 09:44:15;;;;;;;25.80;16.38;;;0.70;99.90;;;;;;4953953;28;20205;-74
2021/12/11 09:47:15;;;;;;;29.23;17.75;;;0.80;99.90;;;;;;4937795;29;20047;-74
2021/12/11 09:49:52;;;;;;;29.38;17.70;;;1.00;99.90;;;;;;4946711;29;20055;-74
2021/12/11 09:52:23;;;;;;;26.85;17.27;;;;;;;;;;4953851;29;20079;-74
2021/12/11 09:54:56;;;;;;;30.27;18.50;;;1.00;99.90;;;;;;4953813;28;20047;-74
2021/12/11 09:57:26;;;;;;;32.65;18.98;;;1.00;99.90;;;;;;4953771;28;20047;-74
2021/12/11 09:59:55;;;;;;;30.45;17.83;;;1.00;99.90;;;;;;4953672;28;20403;-74
2021/12/11 10:02:26;;;;;;;30.23;18.95;;;1.00;99.90;;;;;;4954005;28;20388;-74
2021/12/11 10:05:00;;;;;;;34.20;19.88;;;0.90;99.90;;;;;;4937910;28;20431;-74
2021/12/11 10:07:34;;;;;;;34.30;18.08;;;1.20;99.90;;;;;;4953798;29;20043;-74
2021/12/11 10:10:15;;;;;;;28.98;17.77;;;1.30;99.90;;;;;;4953975;29;20043;-74
2021/12/11 10:12:45;;;;;;;29.77;17.58;;;1.30;99.90;;;;;;4953651;29;20062;-74
2021/12/11 10:15:19;;;;;;;36.08;19.27;;;1.20;99.90;;;;;;4953742;29;20155;-74
2021/12/11 10:17:56;;;;;;;32.15;18.20;;;1.60;99.90;;;;;;4953573;28;20079;-74
2021/12/11 10:20:27;;;;;;;32.78;18.38;;;1.40;99.90;;;;;;4953595;29;20048;-74
2021/12/11 10:22:58;;;;;;;32.72;19.02;;;1.50;99.90;;;;;;4953867;29;20070;-74
2021/12/11 10:25:30;;;;;;;35.00;19.35;;;1.70;99.90;;;;;;4955107;28;20043;-74
2021/12/11 10:28:07;;;;;;;34.55;17.75;;;1.60;99.90;;;;;;4957226;28;20106;-75
2021/12/11 10:30:39;;;;;;;36.28;18.42;;;1.50;99.90;;;;;;4956841;28;20055;-74
2021/12/11 10:33:06;;;;;;;35.63;18.55;;;;;;;;;;4957182;28;20443;-74
2021/12/11 10:35:37;;;;;;;38.00;20.15;;;1.70;99.90;;;;;;4940915;29;20498;-74
2021/12/11 10:38:05;;;;;;;44.33;21.92;;;1.60;99.90;;;;;;4956801;28;20047;-74
2021/12/11 10:40:36;;;;;;;37.58;20.27;;;1.50;99.90;;;;;;4956852;28;20411;-74
2021/12/11 10:43:14;;;;;;;37.05;19.98;;;1.80;99.90;;;;;;4956994;28;20456;-74
2021/12/11 10:45:40;;;;;;;38.30;21.25;;;;;;;;;;4957031;28;20519;-74
2021/12/11 10:48:10;;;;;;;40.05;21.80;;;1.80;99.90;;;;;;4956779;29;20159;-74
2021/12/11 10:50:49;;;;;;;43.65;22.33;;;1.80;99.90;;;;;;4956599;28;20043;-74
2021/12/11 10:53:19;;;;;;;40.83;20.85;;;2.00;99.90;;;;;;4956860;29;20398;-74
2021/12/11 10:55:47;;;;;;;40.85;20.15;;;2.20;99.90;;;;;;4956814;28;20126;-74
2021/12/11 10:58:17;;;;;;;39.45;20.65;;;2.00;99.90;;;;;;4956529;28;20079;-74
2021/12/11 11:01:06;;;;;;;41.13;20.90;;;2.00;99.90;;;;;;4956527;29;20054;-74
2021/12/11 11:03:34;;;;;;;38.33;21.52;;;2.10;99.90;;;;;;4956316;29;20062;-74
2021/12/11 11:06:01;;;;;;;46.15;22.27;;;;;;;;;;4956454;28;20047;-73
2021/12/11 11:08:27;;;;;;;39.42;21.23;;;;;;;;;;4956334;29;20126;-74
2021/12/11 11:10:55;;;;;;;50.33;21.70;;;;;;;;;;4956343;29;20047;-74
2021/12/11 11:13:23;;;;;;;48.45;22.60;;;2.40;99.90;;;;;;4940547;29;20393;-74
2021/12/11 11:15:49;;;;;;;41.83;21.38;;;;;;;;;;4956642;28;20530;-73
2021/12/11 11:18:17;;;;;;;40.53;20.83;;;2.80;99.90;;;;;;4956141;29;20130;-73
2021/12/11 11:20:51;;;;;;;35.75;20.02;;;2.70;99.90;;;;;;4956136;29;20122;-73
2021/12/11 11:23:17;;;;;;;37.72;20.23;;;;;;;;;;4956385;28;20110;-73
2021/12/11 11:25:48;;;;;;;36.97;18.98;;;2.60;99.90;;;;;;4956278;28;20130;-73
2021/12/11 11:28:19;;;;;;;37.42;19.35;;;2.80;99.90;;;;;;4956097;28;20055;-73
2021/12/11 11:30:57;;;;;;;42.28;20.02;;;2.90;99.90;;;;;;4956101;29;20053;-71
2021/12/11 11:33:23;;;;;;;47.00;21.20;;;2.90;99.90;;;;;;4955893;28;20054;-73
2021/12/11 11:35:50;;;;;;;50.35;22.02;;;3.20;99.90;;;;;;4955744;28;20082;-73
2021/12/11 11:38:21;;;;;;;46.38;20.50;;;3.10;99.90;;;;;;4939769;29;20055;-73
2021/12/11 11:40:50;;;;;;;40.05;21.30;;;3.50;99.90;;;;;;4955833;28;20080;-73
2021/12/11 11:43:17;;;;;;;40.50;21.70;;;3.60;99.90;;;;;;4955943;28;20047;-74
2021/12/11 11:45:44;;;;;;;44.75;20.75;;;3.60;99.90;;;;;;4955932;28;20031;-74
2021/12/11 11:48:10;;;;;;;40.17;20.08;;;3.90;99.90;;;;;;4955885;28;20046;-72
2021/12/11 11:50:43;;;;;;;35.97;19.52;;;4.30;99.90;;;;;;4955806;28;20084;-73
2021/12/11 11:53:09;;;;;;;42.88;19.80;;;;;;;;;;4955679;29;20054;-73
2021/12/11 11:55:39;;;;;;;40.03;19.80;;;;;;;;;;4955686;29;20039;-73
2021/12/11 11:58:05;;;;;;;40.40;19.33;;;;;;;;;;4955459;28;20039;-72
2021/12/11 12:00:45;;;;;;;40.03;19.63;;;4.60;99.90;;;;;;4955882;28;20031;-72
2021/12/11 12:03:15;;;;;;;33.35;18.38;;;4.70;99.90;;;;;;4955328;28;20039;-72
2021/12/11 12:05:44;;;;;;;40.17;19.00;;;4.60;99.90;;;;;;4955197;28;20051;-72
2021/12/11 12:08:12;;;;;;;38.50;18.77;;;4.80;99.90;;;;;;4971341;28;20043;-71
2021/12/11 12:10:39;;;;;;;40.78;19.48;;;4.60;99.90;;;;;;4955447;28;20047;-71
2021/12/11 12:13:07;;;;;;;35.13;17.63;;;4.80;99.90;;;;;;4955175;29;20047;-71
2021/12/11 12:15:39;;;;;;;36.75;18.17;;;4.80;99.90;;;;;;4955432;28;20039;-71
2021/12/11 12:18:05;;;;;;;39.83;18.60;;;4.60;99.90;;;;;;4954894;28;20102;-72
2021/12/11 12:20:32;;;;;;;37.17;17.85;;;4.90;99.90;;;;;;4956207;28;20395;-71
2021/12/11 12:22:58;;;;;;;41.05;17.40;;;;;;;;;;4955241;28;20391;-71
2021/12/11 12:25:29;;;;;;;41.03;18.17;;;4.80;99.90;;;;;;4939024;29;20102;-71
2021/12/11 12:27:56;;;;;;;38.28;17.70;;;4.80;99.90;;;;;;4939030;29;20130;-73
2021/12/11 12:30:28;;;;;;;42.33;19.23;;;5.00;99.90;;;;;;4939378;29;20051;-72
2021/12/11 12:32:56;;;;;;;43.83;19.10;;;4.80;99.90;;;;;;4954891;28;20047;-72
2021/12/11 12:35:24;;;;;;;43.33;18.63;;;4.80;99.90;;;;;;4954962;29;20423;-71
2021/12/11 12:37:51;;;;;;;40.30;18.73;;;;;;;;;;4954477;28;20050;-71
2021/12/11 12:40:28;;;;;;;43.20;20.08;;;5.00;99.90;;;;;;4954904;29;20058;-71
2021/12/11 12:43:12;;;;;;;40.38;18.25;;;5.00;99.90;;;;;;4954764;28;20415;-72
2021/12/11 12:45:48;;;;;;;44.08;19.05;;;5.30;99.90;;;;;;4954714;28;20505;-72
2021/12/11 12:48:19;;;;;;;42.45;18.85;;;5.30;99.90;;;;;;4953968;28;20500;-72
2021/12/11 12:50:52;;;;;;;41.45;18.02;;;5.30;99.90;;;;;;4954590;28;20047;-71
2021/12/11 12:53:19;;;;;;;43.10;17.60;;;;;;;;;;4954776;28;20035;-71
2021/12/11 12:56:02;;;;;;;38.17;18.17;;;4.70;99.90;;;;;;4938566;29;20428;-71
2021/12/11 12:58:38;;;;;;;41.72;19.00;;;5.70;99.90;;;;;;4954485;28;20043;-71
2021/12/11 13:01:10;;;;;;;36.10;17.50;;;5.70;99.90;;;;;;4954361;29;20440;-71
2021/12/11 13:03:38;;;;;;;34.80;17.73;;;5.90;99.90;;;;;;4954646;28;20066;-71
2021/12/11 13:06:20;;;;;;;33.35;15.88;;;6.00;99.90;;;;;;4954353;28;20043;-71
2021/12/11 13:08:52;;;;;;;31.27;15.85;;;6.30;99.90;;;;;;4938508;29;20039;-71
2021/12/11 13:11:27;;;;;;;29.00;15.32;;;6.10;99.90;;;;;;4954280;28;20043;-71
2021/12/11 13:13:55;;;;;;;30.77;15.82;;;6.00;99.90;;;;;;4954735;28;20074;-71
2021/12/11 13:16:25;;;;;;;28.85;14.02;;;6.50;99.90;;;;;;4954234;29;20049;-71
2021/12/11 13:18:58;;;;;;;31.90;14.93;;;5.80;99.90;;;;;;4954110;29;20054;-71
2021/12/11 13:21:41;;;;;;;29.95;15.02;;;5.60;99.90;;;;;;4954161;29;20047;-71
2021/12/11 13:24:09;;;;;;;32.55;14.63;;;5.50;99.90;;;;;;4954126;29;20122;-71
2021/12/11 13:26:39;;;;;;;29.40;14.27;;;5.80;99.90;;;;;;4954511;28;20452;-71
2021/12/11 13:29:10;;;;;;;35.97;14.63;;;5.50;99.90;;;;;;4954186;29;20527;-71